This is the latest recevied weather packets stored in our database for station/object K1RFS. If no packets are shown the sender has not sent any weather packets the latest 10 day(s).
| Time | Temp. | Humidity | Pressure | Rain* | Wind** | Luminosity | Snow |
|---|---|---|---|---|---|---|---|
| 1787530110 | 30° C | 38% | 1003.4 hPa | 0 mm | - | 246 W/m² | - |
| 1787529806 | 28.89° C | 42% | 1003.7 hPa | 0 mm | - | 261 W/m² | - |
| 1787529501 | 28.89° C | 43% | 1003.7 hPa | 0 mm | - | 47 W/m² | - |
| 1787529194 | 29.44° C | 42% | 1003.7 hPa | 0 mm | - | 31 W/m² | - |
| 1787528890 | 30° C | 37% | 1003.8 hPa | 0 mm | - | 34 W/m² | - |
| 1787528586 | 30° C | 37% | 1003.8 hPa | 0 mm | - | 42 W/m² | - |
| 1787528286 | 30.56° C | 36% | 1003.9 hPa | 0 mm | - | 54 W/m² | - |
| 1787527983 | 31.11° C | 35% | 1003.7 hPa | 0 mm | - | 75 W/m² | - |
| 1787527678 | 31.67° C | 34% | 1003.8 hPa | 0 mm | - | 74 W/m² | - |
| 1787527374 | 32.78° C | 31% | 1003.9 hPa | 0 mm | - | 66 W/m² | - |
| 1787527069 | 32.78° C | 31% | 1003.7 hPa | 0 mm | - | 339 W/m² | - |
| 1787526764 | 31.11° C | 32% | 1003.7 hPa | 0 mm | - | 363 W/m² | - |
| 1787526461 | 30° C | 36% | 1004 hPa | 0 mm | - | 314 W/m² | - |
| 1787526158 | 30° C | 36% | 1003.8 hPa | 0 mm | - | 65 W/m² | - |
| 1787525853 | 30.56° C | 35% | 1003.8 hPa | 0 mm | - | 55 W/m² | - |
| 1787525549 | 30.56° C | 33% | 1004 hPa | 0 mm | - | 404 W/m² | - |
| 1787525249 | 30° C | 36% | 1003.9 hPa | 0 mm | - | 104 W/m² | - |
| 1787524946 | 29.44° C | 36% | 1004 hPa | 0 mm | - | 233 W/m² | - |
| 1787524640 | 30° C | 37% | 1004.2 hPa | 0 mm | - | 88 W/m² | - |
| 1787524335 | 30.56° C | 34% | 1004.1 hPa | 0 mm | - | 104 W/m² | - |
| 1787524031 | 30° C | 35% | 1004.1 hPa | 0 mm | - | 454 W/m² | - |
| 1787523727 | 28.89° C | 37% | 1004.5 hPa | 0 mm | - | 486 W/m² | - |
| 1787523426 | 27.78° C | 41% | 1004.4 hPa | 0 mm | - | 363 W/m² | - |
| 1787523121 | 27.78° C | 39% | 1004.6 hPa | 0 mm | - | 130 W/m² | - |
| 1787522817 | 27.78° C | 42% | 1004.8 hPa | 0 mm | - | 113 W/m² | - |
* Rain latest hour (hover to see other rain measurements)
** Current wind speed in m/s (hover to see current wind gust speed)